HAZ2131 ZSHC-ZSQD
Flight info
| Callsign | HAZ2131 |
|---|---|
| Flight time | 1h 17m |
| Altitude | 35100 |
| Route | DSH W505 SUPAR B221 IDVEL |
| Aircraft | A320/M-SDE3FGHIRWY/LB1 |
Departure
| Time | 2026-04-14 18:03 |
|---|---|
| Airport | Hangzhou Xiaoshan International Airport (ZSHC) |
Arrival
| Time | 2026-04-14 19:20 |
|---|---|
| Airport | Qingdao Jiaodong International Airport (ZSQD) |
| Time | Latitude | Longitude | Altitude | Speed | Heading |
|---|---|---|---|---|---|
| 2026-04-14 17:43 | 30.23370 | 120.43117 | 32 ft | 0 kts | 65° |
| 2026-04-14 17:53 | 30.23368 | 120.43113 | 32 ft | 2 kts | 65° |
| 2026-04-14 17:53 | 30.23361 | 120.43096 | 32 ft | 2 kts | 64° |
| 2026-04-14 17:54 | 30.23354 | 120.43078 | 31 ft | 2 kts | 65° |
| 2026-04-14 17:54 | 30.23349 | 120.43060 | 31 ft | 2 kts | 96° |
| 2026-04-14 17:54 | 30.23354 | 120.43042 | 31 ft | 2 kts | 129° |
| 2026-04-14 17:54 | 30.23362 | 120.43033 | 32 ft | 1 kts | 150° |
| 2026-04-14 17:55 | 30.23363 | 120.43033 | 32 ft | 0 kts | 151° |
| 2026-04-14 17:57 | 30.23346 | 120.43044 | 30 ft | 6 kts | 151° |
| 2026-04-14 17:57 | 30.23294 | 120.43076 | 32 ft | 11 kts | 154° |
| 2026-04-14 17:57 | 30.23215 | 120.43121 | 32 ft | 13 kts | 153° |
| 2026-04-14 17:57 | 30.23143 | 120.43163 | 32 ft | 11 kts | 153° |
| 2026-04-14 17:58 | 30.23079 | 120.43199 | 32 ft | 10 kts | 159° |
| 2026-04-14 17:58 | 30.23026 | 120.43171 | 32 ft | 9 kts | 240° |
| 2026-04-14 17:58 | 30.22995 | 120.43102 | 32 ft | 13 kts | 242° |
| 2026-04-14 17:58 | 30.22946 | 120.42991 | 32 ft | 16 kts | 243° |
| 2026-04-14 17:59 | 30.22891 | 120.42866 | 32 ft | 18 kts | 243° |
| 2026-04-14 17:59 | 30.22830 | 120.42729 | 32 ft | 20 kts | 242° |
| 2026-04-14 17:59 | 30.22763 | 120.42579 | 32 ft | 22 kts | 243° |
| 2026-04-14 17:59 | 30.22702 | 120.42442 | 32 ft | 20 kts | 243° |
| 2026-04-14 18:00 | 30.22637 | 120.42295 | 32 ft | 21 kts | 243° |
| 2026-04-14 18:00 | 30.22570 | 120.42144 | 32 ft | 15 kts | 243° |
| 2026-04-14 18:00 | 30.22467 | 120.41913 | 30 ft | 18 kts | 243° |
| 2026-04-14 18:01 | 30.22409 | 120.41781 | 32 ft | 19 kts | 244° |
| 2026-04-14 18:01 | 30.22344 | 120.41718 | 32 ft | 12 kts | 177° |
| 2026-04-14 18:01 | 30.22288 | 120.41746 | 31 ft | 6 kts | 152° |
| 2026-04-14 18:01 | 30.22252 | 120.41768 | 30 ft | 6 kts | 152° |
| 2026-04-14 18:02 | 30.22228 | 120.41800 | 30 ft | 5 kts | 100° |
| 2026-04-14 18:02 | 30.22236 | 120.41827 | 30 ft | 3 kts | 63° |
| 2026-04-14 18:02 | 30.22276 | 120.41916 | 31 ft | 43 kts | 63° |
| 2026-04-14 18:02 | 30.22532 | 120.42493 | 34 ft | 115 kts | 62° |
| 2026-04-14 18:03 | 30.22987 | 120.43528 | 88 ft | 166 kts | 63° |
| 2026-04-14 18:03 | 30.23515 | 120.44723 | 777 ft | 167 kts | 62° |
| 2026-04-14 18:03 | 30.23868 | 120.45510 | 1329 ft | 166 kts | 61° |
| 2026-04-14 18:03 | 30.24589 | 120.47109 | 2199 ft | 175 kts | 60° |
| 2026-04-14 18:04 | 30.25167 | 120.48391 | 2641 ft | 190 kts | 60° |
| 2026-04-14 18:04 | 30.25591 | 120.49333 | 2945 ft | 201 kts | 60° |
| 2026-04-14 18:04 | 30.26498 | 120.51350 | 3502 ft | 226 kts | 61° |
| 2026-04-14 18:04 | 30.27250 | 120.53031 | 4030 ft | 243 kts | 61° |
| 2026-04-14 18:05 | 30.27787 | 120.54233 | 4399 ft | 255 kts | 61° |
| 2026-04-14 18:05 | 30.28701 | 120.56855 | 5155 ft | 278 kts | 85° |
| 2026-04-14 18:05 | 30.28586 | 120.58366 | 5648 ft | 283 kts | 109° |
| 2026-04-14 18:05 | 30.27539 | 120.60259 | 6420 ft | 283 kts | 144° |
| 2026-04-14 18:06 | 30.25244 | 120.61672 | 7378 ft | 285 kts | 166° |
| 2026-04-14 18:06 | 30.23959 | 120.62137 | 7903 ft | 288 kts | 169° |
| 2026-04-14 18:06 | 30.22019 | 120.62750 | 8718 ft | 291 kts | 170° |
| 2026-04-14 18:06 | 30.20075 | 120.63524 | 9501 ft | 302 kts | 159° |
| 2026-04-14 18:07 | 30.18352 | 120.64987 | 9784 ft | 315 kts | 135° |
| 2026-04-14 18:07 | 30.17230 | 120.67184 | 9838 ft | 324 kts | 110° |
| 2026-04-14 18:07 | 30.16652 | 120.69708 | 9832 ft | 326 kts | 106° |
| 2026-04-14 18:07 | 30.16082 | 120.72241 | 9847 ft | 326 kts | 107° |
| 2026-04-14 18:08 | 30.15482 | 120.74761 | 9836 ft | 326 kts | 108° |
| 2026-04-14 18:08 | 30.14810 | 120.77257 | 9825 ft | 325 kts | 111° |
| 2026-04-14 18:08 | 30.14055 | 120.79724 | 9837 ft | 325 kts | 113° |
| 2026-04-14 18:08 | 30.13264 | 120.82170 | 9825 ft | 326 kts | 113° |
| 2026-04-14 18:09 | 30.12464 | 120.84616 | 9822 ft | 326 kts | 113° |
| 2026-04-14 18:09 | 30.11670 | 120.87067 | 9827 ft | 325 kts | 113° |
| 2026-04-14 18:09 | 30.10889 | 120.89520 | 10031 ft | 325 kts | 112° |
| 2026-04-14 18:09 | 30.10328 | 120.92121 | 10477 ft | 344 kts | 95° |
| 2026-04-14 18:10 | 30.10418 | 120.94902 | 10906 ft | 360 kts | 80° |
| 2026-04-14 18:10 | 30.11022 | 120.97768 | 11299 ft | 376 kts | 69° |
| 2026-04-14 18:10 | 30.12071 | 121.00595 | 11663 ft | 390 kts | 59° |
| 2026-04-14 18:10 | 30.13566 | 121.03265 | 11993 ft | 403 kts | 50° |
| 2026-04-14 18:11 | 30.15249 | 121.05917 | 12482 ft | 413 kts | 50° |
| 2026-04-14 18:11 | 30.16964 | 121.08601 | 13116 ft | 417 kts | 50° |
| 2026-04-14 18:11 | 30.18703 | 121.11306 | 13767 ft | 422 kts | 50° |
| 2026-04-14 18:11 | 30.20467 | 121.14043 | 14332 ft | 427 kts | 50° |
| 2026-04-14 18:12 | 30.22247 | 121.16806 | 14886 ft | 431 kts | 50° |
| 2026-04-14 18:12 | 30.24045 | 121.19607 | 15449 ft | 435 kts | 50° |
| 2026-04-14 18:12 | 30.25853 | 121.22441 | 16006 ft | 440 kts | 50° |
| 2026-04-14 18:12 | 30.27621 | 121.25353 | 16559 ft | 445 kts | 52° |
| 2026-04-14 18:13 | 30.29341 | 121.28352 | 17110 ft | 450 kts | 54° |
| 2026-04-14 18:13 | 30.31038 | 121.31419 | 17660 ft | 455 kts | 54° |
| 2026-04-14 18:13 | 30.32738 | 121.34527 | 18191 ft | 459 kts | 54° |
| 2026-04-14 18:13 | 30.34456 | 121.37661 | 18646 ft | 463 kts | 54° |
| 2026-04-14 18:14 | 30.36202 | 121.40814 | 19084 ft | 467 kts | 53° |
| 2026-04-14 18:14 | 30.37985 | 121.43979 | 19529 ft | 471 kts | 53° |
| 2026-04-14 18:14 | 30.39796 | 121.47149 | 19959 ft | 474 kts | 52° |
| 2026-04-14 18:14 | 30.41632 | 121.50342 | 20380 ft | 478 kts | 52° |
| 2026-04-14 18:15 | 30.43482 | 121.53555 | 20806 ft | 481 kts | 52° |
| 2026-04-14 18:15 | 30.45341 | 121.56798 | 21218 ft | 485 kts | 52° |
| 2026-04-14 18:15 | 30.47207 | 121.60071 | 21613 ft | 488 kts | 52° |
| 2026-04-14 18:15 | 30.49079 | 121.63369 | 21999 ft | 492 kts | 52° |
| 2026-04-14 18:16 | 30.50961 | 121.66695 | 22375 ft | 495 kts | 52° |
| 2026-04-14 18:16 | 30.52854 | 121.70043 | 22742 ft | 498 kts | 52° |
| 2026-04-14 18:16 | 30.54759 | 121.73416 | 23101 ft | 501 kts | 52° |
| 2026-04-14 18:16 | 30.56674 | 121.76810 | 23458 ft | 504 kts | 52° |
| 2026-04-14 18:17 | 30.58575 | 121.80179 | 23750 ft | 507 kts | 52° |
| 2026-04-14 18:17 | 30.60511 | 121.83612 | 24034 ft | 510 kts | 52° |
| 2026-04-14 18:17 | 30.62458 | 121.87070 | 24327 ft | 513 kts | 52° |
| 2026-04-14 18:17 | 30.64413 | 121.90542 | 24599 ft | 515 kts | 52° |
| 2026-04-14 18:18 | 30.66381 | 121.94034 | 24876 ft | 518 kts | 52° |
| 2026-04-14 18:18 | 30.68360 | 121.97549 | 25145 ft | 521 kts | 52° |
| 2026-04-14 18:18 | 30.70349 | 122.01082 | 25405 ft | 524 kts | 53° |
| 2026-04-14 18:18 | 30.72342 | 122.04629 | 25663 ft | 527 kts | 53° |
| 2026-04-14 18:19 | 30.74350 | 122.08206 | 25914 ft | 529 kts | 53° |
| 2026-04-14 18:19 | 30.76490 | 122.11679 | 26156 ft | 527 kts | 45° |
| 2026-04-14 18:19 | 30.78998 | 122.14757 | 26397 ft | 522 kts | 36° |
| 2026-04-14 18:19 | 30.81825 | 122.17368 | 26620 ft | 516 kts | 27° |
| 2026-04-14 18:20 | 30.84900 | 122.19464 | 26839 ft | 509 kts | 18° |
| 2026-04-14 18:20 | 30.88150 | 122.21024 | 27056 ft | 502 kts | 9° |
| 2026-04-14 18:20 | 30.91487 | 122.22155 | 27267 ft | 500 kts | 7° |
| 2026-04-14 18:20 | 30.94839 | 122.23261 | 27466 ft | 502 kts | 7° |
| 2026-04-14 18:21 | 30.98210 | 122.24383 | 27664 ft | 504 kts | 7° |
| 2026-04-14 18:21 | 31.01581 | 122.25563 | 27864 ft | 508 kts | 9° |
| 2026-04-14 18:21 | 31.04931 | 122.26908 | 28123 ft | 511 kts | 12° |
| 2026-04-14 18:21 | 31.08255 | 122.28388 | 28416 ft | 512 kts | 13° |
| 2026-04-14 18:22 | 31.11560 | 122.29939 | 28674 ft | 513 kts | 14° |
| 2026-04-14 18:22 | 31.14863 | 122.31511 | 28949 ft | 512 kts | 14° |
| 2026-04-14 18:22 | 31.18167 | 122.33060 | 29230 ft | 511 kts | 13° |
| 2026-04-14 18:22 | 31.21480 | 122.34572 | 29512 ft | 511 kts | 13° |
| 2026-04-14 18:23 | 31.24798 | 122.36051 | 29791 ft | 510 kts | 12° |
| 2026-04-14 18:23 | 31.28114 | 122.37510 | 30068 ft | 510 kts | 12° |
| 2026-04-14 18:23 | 31.31434 | 122.38965 | 30299 ft | 509 kts | 12° |
| 2026-04-14 18:23 | 31.34752 | 122.40423 | 30524 ft | 510 kts | 12° |
| 2026-04-14 18:24 | 31.38075 | 122.41849 | 30747 ft | 506 kts | 8° |
| 2026-04-14 18:24 | 31.41454 | 122.42793 | 30984 ft | 493 kts | 359° |
| 2026-04-14 18:24 | 31.44822 | 122.43117 | 31212 ft | 480 kts | 349° |
| 2026-04-14 18:24 | 31.48108 | 122.42860 | 31445 ft | 468 kts | 341° |
| 2026-04-14 18:25 | 31.51250 | 122.42084 | 31677 ft | 456 kts | 333° |
| 2026-04-14 18:25 | 31.54201 | 122.40863 | 31913 ft | 447 kts | 328° |
| 2026-04-14 18:25 | 31.57100 | 122.39537 | 32151 ft | 447 kts | 328° |
| 2026-04-14 18:25 | 31.59999 | 122.38212 | 32388 ft | 447 kts | 328° |
| 2026-04-14 18:26 | 31.62895 | 122.36891 | 32638 ft | 446 kts | 328° |
| 2026-04-14 18:26 | 31.65787 | 122.35572 | 32892 ft | 445 kts | 328° |
| 2026-04-14 18:26 | 31.68674 | 122.34253 | 33145 ft | 445 kts | 327° |
| 2026-04-14 18:26 | 31.71551 | 122.32936 | 33400 ft | 444 kts | 327° |
| 2026-04-14 18:27 | 31.74424 | 122.31618 | 33655 ft | 443 kts | 327° |
| 2026-04-14 18:27 | 31.77284 | 122.30282 | 33917 ft | 441 kts | 326° |
| 2026-04-14 18:27 | 31.80101 | 122.28884 | 34136 ft | 438 kts | 325° |
| 2026-04-14 18:27 | 31.82889 | 122.27439 | 34336 ft | 438 kts | 324° |
| 2026-04-14 18:28 | 31.85693 | 122.26031 | 34529 ft | 440 kts | 326° |
| 2026-04-14 18:28 | 31.88540 | 122.24686 | 34721 ft | 442 kts | 327° |
| 2026-04-14 18:28 | 31.91414 | 122.23393 | 34901 ft | 443 kts | 327° |
| 2026-04-14 18:28 | 31.94302 | 122.22124 | 35049 ft | 444 kts | 327° |
| 2026-04-14 18:29 | 32.00112 | 122.19563 | 35090 ft | 446 kts | 327° |
| 2026-04-14 18:29 | 32.05910 | 122.16964 | 35088 ft | 446 kts | 327° |
| 2026-04-14 18:30 | 32.11694 | 122.14337 | 35086 ft | 445 kts | 327° |
| 2026-04-14 18:30 | 32.17474 | 122.11696 | 35088 ft | 445 kts | 327° |
| 2026-04-14 18:31 | 32.23257 | 122.09054 | 35097 ft | 446 kts | 327° |
| 2026-04-14 18:31 | 32.29045 | 122.06423 | 35103 ft | 446 kts | 327° |
| 2026-04-14 18:32 | 32.34835 | 122.03791 | 35104 ft | 446 kts | 327° |
| 2026-04-14 18:32 | 32.40586 | 122.01162 | 35107 ft | 446 kts | 327° |
| 2026-04-14 18:33 | 32.46408 | 121.98493 | 35110 ft | 446 kts | 327° |
| 2026-04-14 18:34 | 32.57992 | 121.93179 | 35117 ft | 447 kts | 328° |
| 2026-04-14 18:34 | 32.63792 | 121.90526 | 35110 ft | 447 kts | 328° |
| 2026-04-14 18:35 | 32.69593 | 121.87861 | 35116 ft | 447 kts | 328° |
| 2026-04-14 18:35 | 32.75396 | 121.85184 | 35110 ft | 447 kts | 328° |
| 2026-04-14 18:36 | 32.81163 | 121.82520 | 35113 ft | 448 kts | 328° |
| 2026-04-14 18:36 | 32.86976 | 121.79835 | 35114 ft | 448 kts | 328° |
| 2026-04-14 18:37 | 32.92793 | 121.77146 | 35110 ft | 449 kts | 328° |
| 2026-04-14 18:37 | 32.98648 | 121.74431 | 35110 ft | 449 kts | 328° |
| 2026-04-14 18:38 | 33.04468 | 121.71731 | 35108 ft | 449 kts | 328° |
| 2026-04-14 18:38 | 33.10290 | 121.69023 | 35105 ft | 449 kts | 328° |
| 2026-04-14 18:39 | 33.16116 | 121.66315 | 35103 ft | 449 kts | 328° |
| 2026-04-14 18:39 | 33.21907 | 121.63618 | 35099 ft | 450 kts | 328° |
| 2026-04-14 18:40 | 33.27723 | 121.60873 | 35098 ft | 449 kts | 327° |
| 2026-04-14 18:40 | 33.33446 | 121.57946 | 35102 ft | 447 kts | 326° |
| 2026-04-14 18:41 | 33.39132 | 121.54950 | 35107 ft | 447 kts | 326° |
| 2026-04-14 18:41 | 33.44830 | 121.51979 | 35106 ft | 447 kts | 326° |
| 2026-04-14 18:42 | 33.50544 | 121.49034 | 35102 ft | 447 kts | 327° |
| 2026-04-14 18:42 | 33.56265 | 121.46095 | 35101 ft | 447 kts | 327° |
| 2026-04-14 18:43 | 33.61980 | 121.43149 | 35101 ft | 447 kts | 327° |
| 2026-04-14 18:43 | 33.67696 | 121.40194 | 35112 ft | 447 kts | 327° |
| 2026-04-14 18:44 | 33.73487 | 121.37388 | 35113 ft | 450 kts | 329° |
| 2026-04-14 18:44 | 33.79331 | 121.34693 | 35123 ft | 450 kts | 329° |
| 2026-04-14 18:45 | 33.85163 | 121.31985 | 35120 ft | 449 kts | 329° |
| 2026-04-14 18:45 | 33.90967 | 121.29235 | 35109 ft | 448 kts | 329° |
| 2026-04-14 18:46 | 33.96767 | 121.26464 | 35111 ft | 448 kts | 329° |
| 2026-04-14 18:46 | 34.02563 | 121.23701 | 35112 ft | 448 kts | 329° |
| 2026-04-14 18:47 | 34.08367 | 121.20943 | 35115 ft | 448 kts | 329° |
| 2026-04-14 18:47 | 34.14163 | 121.18184 | 35121 ft | 448 kts | 329° |
| 2026-04-14 18:48 | 34.19019 | 121.15868 | 35119 ft | 447 kts | 329° |
| 2026-04-14 18:48 | 34.25740 | 121.12645 | 35121 ft | 447 kts | 329° |
| 2026-04-14 18:49 | 34.30584 | 121.10323 | 35114 ft | 447 kts | 329° |
| 2026-04-14 18:49 | 34.36370 | 121.07552 | 35119 ft | 447 kts | 329° |
| 2026-04-14 18:50 | 34.42150 | 121.04771 | 35122 ft | 447 kts | 330° |
| 2026-04-14 18:50 | 34.47882 | 121.02013 | 35109 ft | 442 kts | 330° |
| 2026-04-14 18:51 | 34.50732 | 121.00644 | 34944 ft | 441 kts | 330° |
| 2026-04-14 18:51 | 34.53571 | 120.99276 | 34486 ft | 438 kts | 330° |
| 2026-04-14 18:51 | 34.56406 | 120.97906 | 34031 ft | 439 kts | 331° |
| 2026-04-14 18:51 | 34.59245 | 120.96533 | 33502 ft | 440 kts | 331° |
| 2026-04-14 18:52 | 34.62093 | 120.95156 | 32975 ft | 441 kts | 332° |
| 2026-04-14 18:52 | 34.64947 | 120.93775 | 32457 ft | 442 kts | 332° |
| 2026-04-14 18:52 | 34.67808 | 120.92391 | 31950 ft | 443 kts | 332° |
| 2026-04-14 18:52 | 34.70676 | 120.91005 | 31454 ft | 444 kts | 332° |
| 2026-04-14 18:53 | 34.73548 | 120.89613 | 30967 ft | 445 kts | 332° |
| 2026-04-14 18:53 | 34.76427 | 120.88219 | 30486 ft | 446 kts | 333° |
| 2026-04-14 18:53 | 34.79311 | 120.86824 | 30013 ft | 447 kts | 333° |
| 2026-04-14 18:53 | 34.82180 | 120.85440 | 29447 ft | 439 kts | 333° |
| 2026-04-14 18:54 | 34.85006 | 120.84074 | 28901 ft | 437 kts | 333° |
| 2026-04-14 18:54 | 34.87834 | 120.82696 | 28377 ft | 439 kts | 333° |
| 2026-04-14 18:54 | 34.90674 | 120.81309 | 27852 ft | 440 kts | 334° |
| 2026-04-14 18:54 | 34.93523 | 120.79918 | 27337 ft | 442 kts | 334° |
| 2026-04-14 18:55 | 34.96378 | 120.78525 | 26829 ft | 443 kts | 334° |
| 2026-04-14 18:55 | 34.99244 | 120.77127 | 26337 ft | 444 kts | 334° |
| 2026-04-14 18:55 | 35.02120 | 120.75724 | 25843 ft | 445 kts | 334° |
| 2026-04-14 18:55 | 35.04996 | 120.74316 | 25367 ft | 447 kts | 335° |
| 2026-04-14 18:56 | 35.07883 | 120.72902 | 24893 ft | 448 kts | 335° |
| 2026-04-14 18:56 | 35.10777 | 120.71485 | 24428 ft | 449 kts | 335° |
| 2026-04-14 18:56 | 35.13681 | 120.70064 | 23971 ft | 450 kts | 335° |
| 2026-04-14 18:56 | 35.16591 | 120.68639 | 23503 ft | 450 kts | 335° |
| 2026-04-14 18:57 | 35.19487 | 120.67225 | 22977 ft | 446 kts | 335° |
| 2026-04-14 18:57 | 35.22328 | 120.65849 | 22536 ft | 432 kts | 335° |
| 2026-04-14 18:57 | 35.25084 | 120.64522 | 22226 ft | 418 kts | 335° |
| 2026-04-14 18:57 | 35.27743 | 120.63243 | 21914 ft | 405 kts | 335° |
| 2026-04-14 18:58 | 35.30356 | 120.61978 | 21609 ft | 403 kts | 335° |
| 2026-04-14 18:58 | 35.32953 | 120.60714 | 21306 ft | 401 kts | 335° |
| 2026-04-14 18:58 | 35.35536 | 120.59451 | 21003 ft | 399 kts | 335° |
| 2026-04-14 18:58 | 35.38104 | 120.58193 | 20710 ft | 397 kts | 335° |
| 2026-04-14 18:59 | 35.40663 | 120.56946 | 20412 ft | 395 kts | 335° |
| 2026-04-14 18:59 | 35.43215 | 120.55712 | 20122 ft | 393 kts | 335° |
| 2026-04-14 18:59 | 35.45755 | 120.54487 | 19835 ft | 391 kts | 335° |
| 2026-04-14 18:59 | 35.48283 | 120.53267 | 19547 ft | 390 kts | 335° |
| 2026-04-14 19:00 | 35.50800 | 120.52049 | 19258 ft | 388 kts | 335° |
| 2026-04-14 19:00 | 35.53301 | 120.50837 | 18987 ft | 386 kts | 335° |
| 2026-04-14 19:00 | 35.55795 | 120.49629 | 18705 ft | 385 kts | 335° |
| 2026-04-14 19:00 | 35.58280 | 120.48425 | 18429 ft | 383 kts | 335° |
| 2026-04-14 19:01 | 35.60753 | 120.47225 | 18131 ft | 381 kts | 335° |
| 2026-04-14 19:01 | 35.63211 | 120.46028 | 17816 ft | 380 kts | 335° |
| 2026-04-14 19:01 | 35.65665 | 120.44830 | 17499 ft | 378 kts | 335° |
| 2026-04-14 19:01 | 35.68104 | 120.43637 | 17188 ft | 377 kts | 335° |
| 2026-04-14 19:02 | 35.70540 | 120.42445 | 16883 ft | 376 kts | 336° |
| 2026-04-14 19:02 | 35.72964 | 120.41258 | 16581 ft | 374 kts | 336° |
| 2026-04-14 19:02 | 35.75380 | 120.40075 | 16276 ft | 373 kts | 336° |
| 2026-04-14 19:02 | 35.77786 | 120.38896 | 15948 ft | 371 kts | 336° |
| 2026-04-14 19:03 | 35.80182 | 120.37722 | 15576 ft | 370 kts | 336° |
| 2026-04-14 19:03 | 35.82536 | 120.36568 | 15223 ft | 368 kts | 337° |
| 2026-04-14 19:03 | 35.84908 | 120.35405 | 14854 ft | 366 kts | 337° |
| 2026-04-14 19:03 | 35.87286 | 120.34238 | 14533 ft | 359 kts | 337° |
| 2026-04-14 19:04 | 35.89573 | 120.33117 | 14236 ft | 349 kts | 338° |
| 2026-04-14 19:04 | 35.91808 | 120.32022 | 13959 ft | 341 kts | 338° |
| 2026-04-14 19:04 | 35.93973 | 120.30960 | 13666 ft | 337 kts | 338° |
| 2026-04-14 19:04 | 35.96154 | 120.29918 | 13349 ft | 336 kts | 341° |
| 2026-04-14 19:05 | 35.98402 | 120.29159 | 13029 ft | 334 kts | 348° |
| 2026-04-14 19:05 | 36.00698 | 120.28750 | 12716 ft | 333 kts | 354° |
| 2026-04-14 19:05 | 36.02997 | 120.28489 | 12412 ft | 331 kts | 354° |
| 2026-04-14 19:05 | 36.05288 | 120.28225 | 12105 ft | 330 kts | 354° |
| 2026-04-14 19:06 | 36.07568 | 120.27959 | 11801 ft | 328 kts | 354° |
| 2026-04-14 19:06 | 36.09838 | 120.27690 | 11505 ft | 327 kts | 354° |
| 2026-04-14 19:06 | 36.12097 | 120.27419 | 11211 ft | 326 kts | 354° |
| 2026-04-14 19:06 | 36.14351 | 120.27149 | 10904 ft | 325 kts | 354° |
| 2026-04-14 19:07 | 36.16597 | 120.26883 | 10617 ft | 324 kts | 355° |
| 2026-04-14 19:07 | 36.18836 | 120.26619 | 10328 ft | 323 kts | 355° |
| 2026-04-14 19:07 | 36.21066 | 120.26357 | 10043 ft | 321 kts | 355° |
| 2026-04-14 19:07 | 36.23262 | 120.26097 | 9745 ft | 310 kts | 355° |
| 2026-04-14 19:08 | 36.25341 | 120.25847 | 9430 ft | 291 kts | 355° |
| 2026-04-14 19:08 | 36.27320 | 120.25610 | 9123 ft | 284 kts | 354° |
| 2026-04-14 19:08 | 36.29265 | 120.25219 | 8804 ft | 283 kts | 347° |
| 2026-04-14 19:08 | 36.31149 | 120.24543 | 8502 ft | 282 kts | 343° |
| 2026-04-14 19:09 | 36.33013 | 120.23812 | 8202 ft | 280 kts | 343° |
| 2026-04-14 19:09 | 36.34868 | 120.23088 | 7897 ft | 279 kts | 343° |
| 2026-04-14 19:09 | 36.36713 | 120.22369 | 7598 ft | 277 kts | 343° |
| 2026-04-14 19:09 | 36.38553 | 120.21653 | 7365 ft | 277 kts | 343° |
| 2026-04-14 19:10 | 36.40386 | 120.20936 | 7122 ft | 276 kts | 342° |
| 2026-04-14 19:10 | 36.42209 | 120.20221 | 6883 ft | 275 kts | 342° |
| 2026-04-14 19:10 | 36.44029 | 120.19509 | 6639 ft | 274 kts | 342° |
| 2026-04-14 19:10 | 36.45840 | 120.18799 | 6400 ft | 272 kts | 342° |
| 2026-04-14 19:11 | 36.47641 | 120.18091 | 6146 ft | 271 kts | 342° |
| 2026-04-14 19:11 | 36.49442 | 120.17387 | 5892 ft | 271 kts | 342° |
| 2026-04-14 19:11 | 36.51237 | 120.16686 | 5637 ft | 270 kts | 342° |
| 2026-04-14 19:11 | 36.53029 | 120.15984 | 5385 ft | 270 kts | 342° |
| 2026-04-14 19:12 | 36.54792 | 120.15291 | 5140 ft | 269 kts | 342° |
| 2026-04-14 19:12 | 36.56572 | 120.14588 | 4894 ft | 268 kts | 342° |
| 2026-04-14 19:12 | 36.60083 | 120.13181 | 4376 ft | 256 kts | 338° |
| 2026-04-14 19:13 | 36.61438 | 120.11932 | 4139 ft | 236 kts | 304° |
| 2026-04-14 19:13 | 36.61989 | 120.10100 | 3888 ft | 225 kts | 272° |
| 2026-04-14 19:13 | 36.61727 | 120.08206 | 3632 ft | 224 kts | 252° |
| 2026-04-14 19:13 | 36.61248 | 120.06365 | 3424 ft | 224 kts | 252° |
| 2026-04-14 19:14 | 36.60769 | 120.04525 | 3284 ft | 223 kts | 252° |
| 2026-04-14 19:14 | 36.60293 | 120.02689 | 3163 ft | 223 kts | 252° |
| 2026-04-14 19:14 | 36.59820 | 120.00876 | 3056 ft | 215 kts | 250° |
| 2026-04-14 19:14 | 36.59000 | 119.99479 | 3002 ft | 192 kts | 211° |
| 2026-04-14 19:15 | 36.57735 | 119.99081 | 3008 ft | 191 kts | 169° |
| 2026-04-14 19:15 | 36.56468 | 119.99597 | 2997 ft | 192 kts | 162° |
| 2026-04-14 19:15 | 36.55188 | 120.00075 | 3005 ft | 193 kts | 163° |
| 2026-04-14 19:15 | 36.53907 | 120.00560 | 3007 ft | 192 kts | 162° |
| 2026-04-14 19:16 | 36.52629 | 120.01058 | 3011 ft | 193 kts | 162° |
| 2026-04-14 19:16 | 36.51351 | 120.01559 | 2901 ft | 192 kts | 162° |
| 2026-04-14 19:16 | 36.50080 | 120.02061 | 2692 ft | 191 kts | 162° |
| 2026-04-14 19:16 | 36.48815 | 120.02560 | 2453 ft | 191 kts | 162° |
| 2026-04-14 19:17 | 36.47566 | 120.03052 | 2222 ft | 184 kts | 163° |
| 2026-04-14 19:17 | 36.46382 | 120.03518 | 1976 ft | 173 kts | 163° |
| 2026-04-14 19:17 | 36.45274 | 120.03955 | 1755 ft | 158 kts | 163° |
| 2026-04-14 19:17 | 36.44269 | 120.04351 | 1549 ft | 146 kts | 163° |
| 2026-04-14 19:18 | 36.43326 | 120.04723 | 1354 ft | 141 kts | 163° |
| 2026-04-14 19:18 | 36.42393 | 120.05089 | 1163 ft | 140 kts | 163° |
| 2026-04-14 19:18 | 36.41466 | 120.05453 | 985 ft | 139 kts | 163° |
| 2026-04-14 19:18 | 36.40545 | 120.05809 | 782 ft | 138 kts | 163° |
| 2026-04-14 19:19 | 36.39631 | 120.06169 | 594 ft | 137 kts | 162° |
| 2026-04-14 19:19 | 36.38725 | 120.06529 | 409 ft | 137 kts | 163° |
| 2026-04-14 19:19 | 36.37819 | 120.06880 | 238 ft | 136 kts | 162° |
| 2026-04-14 19:19 | 36.36931 | 120.07234 | 54 ft | 136 kts | 162° |
| 2026-04-14 19:20 | 36.36140 | 120.07544 | 37 ft | 84 kts | 161° |
| 2026-04-14 19:20 | 36.35775 | 120.07687 | 37 ft | 38 kts | 162° |
| 2026-04-14 19:20 | 36.35645 | 120.07755 | 38 ft | 14 kts | 147° |
| 2026-04-14 19:20 | 36.35582 | 120.07815 | 37 ft | 8 kts | 141° |
| 2026-04-14 19:21 | 36.35541 | 120.07857 | 38 ft | 7 kts | 140° |
| 2026-04-14 19:21 | 36.35508 | 120.07900 | 37 ft | 6 kts | 129° |
| 2026-04-14 19:21 | 36.35497 | 120.07948 | 38 ft | 5 kts | 89° |
| 2026-04-14 19:21 | 36.35509 | 120.08000 | 38 ft | 9 kts | 71° |
| 2026-04-14 19:22 | 36.35537 | 120.08101 | 37 ft | 14 kts | 71° |
| 2026-04-14 19:22 | 36.35579 | 120.08165 | 36 ft | 9 kts | 10° |
| 2026-04-14 19:22 | 36.35651 | 120.08143 | 37 ft | 13 kts | 343° |
| 2026-04-14 19:22 | 36.35734 | 120.08112 | 38 ft | 11 kts | 342° |
| 2026-04-14 19:23 | 36.35801 | 120.08115 | 38 ft | 12 kts | 43° |
| 2026-04-14 19:23 | 36.35859 | 120.08202 | 38 ft | 12 kts | 43° |
| 2026-04-14 19:23 | 36.35890 | 120.08259 | 38 ft | 6 kts | 94° |
| 2026-04-14 19:23 | 36.35869 | 120.08297 | 37 ft | 5 kts | 133° |
| 2026-04-14 19:24 | 36.35863 | 120.08306 | 37 ft | 0 kts | 133° |